KOSH/OSH METAR and TAF weather

Enter ICAO airport designator
Station Type Date Time Source
KOSH METAR 2021/09/27 06:53 UTC NOAA

KOSH 270653Z AUTO 21007KT 10SM CLR 18/12 A2971 RMK AO2 SLP048 T01830122


Station Type Date Time Source
KOSH Decoded METAR 2021/09/27 06:53 UTC NOAA

WITTMAN REGIONAL AIRPORT, WI, United States (KOSH) 43-58N 88-33W 248M
Sep 27, 2021 - 02:53 AM EDT / 2021.09.27 0653 UTC
Wind: from the SSW (210 degrees) at 8 MPH (7 KT):0
Visibility: 10 mile(s):0
Sky conditions: clear
Temperature: 64.9 F (18.3 C)
Dew Point: 54.0 F (12.2 C)
Relative Humidity: 67%
Pressure (altimeter): 29.71 in. Hg (1006 hPa)
ob: KOSH 270653Z AUTO 21007KT 10SM CLR 18/12 A2971 RMK AO2 SLP048 T01830122
cycle: 7

Station Type Date Time Source
KOSH TAF 2021/08/04 18:24 UTC NOAA

TAF KOSH 041722Z 0418/0518 VRB04KT P6SM SCT060
FM050200 18005KT P6SM SCT070
FM051200 22005KT P6SM FEW250

Example: see airport list